sensor_id;sensor_type;location;lat;lon;timestamp;P1;durP1;ratioP1;P2;durP2;ratioP2
70132;SDS011;57495;49.922;7.966;2022-09-09T00:01:11;3.20;;;0.50;;
70132;SDS011;57495;49.922;7.966;2022-09-09T00:03:24;3.75;;;0.60;;
70132;SDS011;57495;49.922;7.966;2022-09-09T00:05:29;3.13;;;0.57;;
70132;SDS011;57495;49.922;7.966;2022-09-09T00:07:40;2.33;;;0.50;;
70132;SDS011;57495;49.922;7.966;2022-09-09T00:09:45;3.47;;;0.80;;
70132;SDS011;57495;49.922;7.966;2022-09-09T00:11:51;2.63;;;0.50;;
70132;SDS011;57495;49.922;7.966;2022-09-09T00:13:56;5.95;;;0.47;;
70132;SDS011;57495;49.922;7.966;2022-09-09T00:16:04;2.85;;;0.40;;
70132;SDS011;57495;49.922;7.966;2022-09-09T00:18:16;3.83;;;0.73;;
70132;SDS011;57495;49.922;7.966;2022-09-09T00:20:25;4.20;;;0.60;;
70132;SDS011;57495;49.922;7.966;2022-09-09T00:22:32;4.57;;;0.90;;
70132;SDS011;57495;49.922;7.966;2022-09-09T00:24:36;2.63;;;0.30;;
70132;SDS011;57495;49.922;7.966;2022-09-09T00:26:43;4.60;;;0.50;;
70132;SDS011;57495;49.922;7.966;2022-09-09T00:28:51;4.25;;;0.60;;
70132;SDS011;57495;49.922;7.966;2022-09-09T00:30:59;5.13;;;0.68;;
70132;SDS011;57495;49.922;7.966;2022-09-09T00:33:14;2.63;;;0.40;;
70132;SDS011;57495;49.922;7.966;2022-09-09T00:35:21;4.45;;;0.40;;
70132;SDS011;57495;49.922;7.966;2022-09-09T00:37:25;4.00;;;0.50;;
70132;SDS011;57495;49.922;7.966;2022-09-09T00:39:29;5.20;;;0.60;;
70132;SDS011;57495;49.922;7.966;2022-09-09T00:41:39;3.65;;;0.70;;
70132;SDS011;57495;49.922;7.966;2022-09-09T00:43:55;2.97;;;0.47;;
70132;SDS011;57495;49.922;7.966;2022-09-09T00:46:04;3.10;;;0.52;;
70132;SDS011;57495;49.922;7.966;2022-09-09T00:48:18;3.20;;;0.70;;
70132;SDS011;57495;49.922;7.966;2022-09-09T00:50:31;4.68;;;1.17;;
70132;SDS011;57495;49.922;7.966;2022-09-09T00:52:39;4.32;;;0.90;;
70132;SDS011;57495;49.922;7.966;2022-09-09T00:54:51;2.90;;;0.67;;
70132;SDS011;57495;49.922;7.966;2022-09-09T00:57:01;3.50;;;1.15;;
70132;SDS011;57495;49.922;7.966;2022-09-09T00:59:16;2.72;;;0.60;;
70132;SDS011;57495;49.922;7.966;2022-09-09T01:01:27;5.40;;;0.90;;
70132;SDS011;57495;49.922;7.966;2022-09-09T01:03:31;5.07;;;0.77;;
70132;SDS011;57495;49.922;7.966;2022-09-09T01:05:37;5.10;;;0.83;;
70132;SDS011;57495;49.922;7.966;2022-09-09T01:07:44;3.28;;;0.70;;
70132;SDS011;57495;49.922;7.966;2022-09-09T01:09:54;4.53;;;0.95;;
70132;SDS011;57495;49.922;7.966;2022-09-09T01:11:59;4.95;;;0.65;;
70132;SDS011;57495;49.922;7.966;2022-09-09T01:14:10;3.17;;;0.90;;
70132;SDS011;57495;49.922;7.966;2022-09-09T01:16:20;3.97;;;0.80;;
70132;SDS011;57495;49.922;7.966;2022-09-09T01:18:23;5.63;;;0.60;;
70132;SDS011;57495;49.922;7.966;2022-09-09T01:20:29;4.40;;;0.70;;
70132;SDS011;57495;49.922;7.966;2022-09-09T01:22:40;3.00;;;0.57;;
70132;SDS011;57495;49.922;7.966;2022-09-09T01:25:01;4.75;;;0.55;;
70132;SDS011;57495;49.922;7.966;2022-09-09T01:27:16;2.93;;;0.43;;
70132;SDS011;57495;49.922;7.966;2022-09-09T01:29:21;2.95;;;0.60;;
70132;SDS011;57495;49.922;7.966;2022-09-09T01:31:26;4.70;;;0.50;;
70132;SDS011;57495;49.922;7.966;2022-09-09T01:33:31;3.83;;;0.85;;
70132;SDS011;57495;49.922;7.966;2022-09-09T01:35:37;4.03;;;0.60;;
70132;SDS011;57495;49.922;7.966;2022-09-09T01:37:44;3.20;;;0.63;;
70132;SDS011;57495;49.922;7.966;2022-09-09T01:39:45;3.17;;;0.60;;
70132;SDS011;57495;49.922;7.966;2022-09-09T01:41:47;2.75;;;0.60;;
70132;SDS011;57495;49.922;7.966;2022-09-09T01:43:50;4.70;;;0.43;;
70132;SDS011;57495;49.922;7.966;2022-09-09T01:45:52;4.78;;;1.15;;
70132;SDS011;57495;49.922;7.966;2022-09-09T01:47:56;3.23;;;0.70;;
70132;SDS011;57495;49.922;7.966;2022-09-09T01:49:58;3.67;;;0.55;;
70132;SDS011;57495;49.922;7.966;2022-09-09T01:52:01;4.18;;;0.75;;
70132;SDS011;57495;49.922;7.966;2022-09-09T01:54:03;3.92;;;0.47;;
70132;SDS011;57495;49.922;7.966;2022-09-09T01:56:08;3.25;;;0.52;;
70132;SDS011;57495;49.922;7.966;2022-09-09T01:58:22;3.37;;;0.50;;
70132;SDS011;57495;49.922;7.966;2022-09-09T02:00:33;2.45;;;0.52;;
70132;SDS011;57495;49.922;7.966;2022-09-09T02:02:39;3.70;;;0.60;;
70132;SDS011;57495;49.922;7.966;2022-09-09T02:04:48;5.70;;;0.80;;
70132;SDS011;57495;49.922;7.966;2022-09-09T02:06:52;4.50;;;0.52;;
70132;SDS011;57495;49.922;7.966;2022-09-09T02:08:56;2.70;;;0.40;;
70132;SDS011;57495;49.922;7.966;2022-09-09T02:11:01;4.03;;;0.53;;
70132;SDS011;57495;49.922;7.966;2022-09-09T02:13:08;6.05;;;0.60;;
70132;SDS011;57495;49.922;7.966;2022-09-09T02:15:14;4.65;;;0.70;;
70132;SDS011;57495;49.922;7.966;2022-09-09T02:17:24;3.45;;;0.82;;
70132;SDS011;57495;49.922;7.966;2022-09-09T02:19:29;3.75;;;0.47;;
70132;SDS011;57495;49.922;7.966;2022-09-09T02:21:35;5.00;;;0.67;;
70132;SDS011;57495;49.922;7.966;2022-09-09T02:23:37;7.00;;;1.30;;
70132;SDS011;57495;49.922;7.966;2022-09-09T02:25:42;3.10;;;0.70;;
70132;SDS011;57495;49.922;7.966;2022-09-09T02:27:46;2.33;;;0.52;;
70132;SDS011;57495;49.922;7.966;2022-09-09T02:29:51;4.30;;;0.55;;
70132;SDS011;57495;49.922;7.966;2022-09-09T02:31:54;3.70;;;0.73;;
70132;SDS011;57495;49.922;7.966;2022-09-09T02:34:03;4.72;;;0.80;;
70132;SDS011;57495;49.922;7.966;2022-09-09T02:36:09;3.63;;;0.70;;
70132;SDS011;57495;49.922;7.966;2022-09-09T02:38:13;5.30;;;0.57;;
70132;SDS011;57495;49.922;7.966;2022-09-09T02:40:17;3.15;;;0.80;;
70132;SDS011;57495;49.922;7.966;2022-09-09T02:42:18;4.27;;;0.60;;
70132;SDS011;57495;49.922;7.966;2022-09-09T02:44:20;3.50;;;0.80;;
70132;SDS011;57495;49.922;7.966;2022-09-09T02:46:27;3.92;;;0.85;;
70132;SDS011;57495;49.922;7.966;2022-09-09T02:48:39;6.28;;;0.50;;
70132;SDS011;57495;49.922;7.966;2022-09-09T02:50:52;5.32;;;0.70;;
70132;SDS011;57495;49.922;7.966;2022-09-09T02:53:01;4.50;;;0.50;;
70132;SDS011;57495;49.922;7.966;2022-09-09T02:55:12;4.70;;;1.10;;
70132;SDS011;57495;49.922;7.966;2022-09-09T02:57:22;3.53;;;0.60;;
70132;SDS011;57495;49.922;7.966;2022-09-09T02:59:27;6.40;;;0.63;;
70132;SDS011;57495;49.922;7.966;2022-09-09T03:01:30;4.68;;;1.00;;
70132;SDS011;57495;49.922;7.966;2022-09-09T03:03:32;6.87;;;1.20;;
70132;SDS011;57495;49.922;7.966;2022-09-09T03:05:34;5.25;;;0.73;;
70132;SDS011;57495;49.922;7.966;2022-09-09T03:07:37;3.65;;;0.88;;
70132;SDS011;57495;49.922;7.966;2022-09-09T03:09:39;4.70;;;0.70;;
70132;SDS011;57495;49.922;7.966;2022-09-09T03:11:42;2.85;;;0.60;;
70132;SDS011;57495;49.922;7.966;2022-09-09T03:13:43;3.20;;;0.60;;
70132;SDS011;57495;49.922;7.966;2022-09-09T03:15:44;3.80;;;0.80;;
70132;SDS011;57495;49.922;7.966;2022-09-09T03:17:46;4.95;;;0.65;;
70132;SDS011;57495;49.922;7.966;2022-09-09T03:19:47;5.22;;;0.90;;
70132;SDS011;57495;49.922;7.966;2022-09-09T03:21:52;4.90;;;0.98;;
70132;SDS011;57495;49.922;7.966;2022-09-09T03:23:55;3.10;;;0.73;;
70132;SDS011;57495;49.922;7.966;2022-09-09T03:25:57;4.00;;;0.82;;
70132;SDS011;57495;49.922;7.966;2022-09-09T03:27:58;5.25;;;1.05;;
70132;SDS011;57495;49.922;7.966;2022-09-09T03:30:00;4.75;;;1.10;;
70132;SDS011;57495;49.922;7.966;2022-09-09T03:32:03;5.32;;;1.27;;
70132;SDS011;57495;49.922;7.966;2022-09-09T03:34:05;4.43;;;0.70;;
70132;SDS011;57495;49.922;7.966;2022-09-09T03:36:08;5.60;;;1.02;;
70132;SDS011;57495;49.922;7.966;2022-09-09T03:38:10;5.93;;;1.27;;
70132;SDS011;57495;49.922;7.966;2022-09-09T03:40:13;4.47;;;0.85;;
70132;SDS011;57495;49.922;7.966;2022-09-09T03:42:15;7.22;;;1.10;;
70132;SDS011;57495;49.922;7.966;2022-09-09T03:44:18;4.20;;;1.00;;
70132;SDS011;57495;49.922;7.966;2022-09-09T03:46:20;3.33;;;0.98;;
70132;SDS011;57495;49.922;7.966;2022-09-09T03:48:23;3.53;;;0.75;;
70132;SDS011;57495;49.922;7.966;2022-09-09T03:50:25;3.38;;;1.10;;
70132;SDS011;57495;49.922;7.966;2022-09-09T03:52:27;7.80;;;1.65;;
70132;SDS011;57495;49.922;7.966;2022-09-09T03:54:29;4.97;;;0.90;;
70132;SDS011;57495;49.922;7.966;2022-09-09T03:56:32;6.35;;;0.90;;
70132;SDS011;57495;49.922;7.966;2022-09-09T03:58:33;4.03;;;0.80;;
70132;SDS011;57495;49.922;7.966;2022-09-09T04:00:35;5.65;;;0.95;;
70132;SDS011;57495;49.922;7.966;2022-09-09T04:02:36;4.03;;;1.10;;
70132;SDS011;57495;49.922;7.966;2022-09-09T04:04:39;7.87;;;1.10;;
70132;SDS011;57495;49.922;7.966;2022-09-09T04:06:40;4.45;;;1.10;;
70132;SDS011;57495;49.922;7.966;2022-09-09T04:08:41;4.95;;;1.25;;
70132;SDS011;57495;49.922;7.966;2022-09-09T04:10:44;4.70;;;0.95;;
70132;SDS011;57495;49.922;7.966;2022-09-09T04:12:47;13.70;;;2.08;;
70132;SDS011;57495;49.922;7.966;2022-09-09T04:14:49;4.67;;;0.90;;
70132;SDS011;57495;49.922;7.966;2022-09-09T04:16:50;5.22;;;0.85;;
70132;SDS011;57495;49.922;7.966;2022-09-09T04:18:51;4.88;;;1.05;;
70132;SDS011;57495;49.922;7.966;2022-09-09T04:20:53;4.20;;;1.10;;
70132;SDS011;57495;49.922;7.966;2022-09-09T04:22:57;3.60;;;0.82;;
70132;SDS011;57495;49.922;7.966;2022-09-09T04:24:58;6.10;;;1.10;;
70132;SDS011;57495;49.922;7.966;2022-09-09T04:26:59;5.30;;;1.23;;
70132;SDS011;57495;49.922;7.966;2022-09-09T04:29:02;5.55;;;1.83;;
70132;SDS011;57495;49.922;7.966;2022-09-09T04:31:04;3.88;;;0.73;;
70132;SDS011;57495;49.922;7.966;2022-09-09T04:33:07;4.53;;;1.00;;
70132;SDS011;57495;49.922;7.966;2022-09-09T04:35:09;5.00;;;0.77;;
70132;SDS011;57495;49.922;7.966;2022-09-09T04:37:10;5.95;;;0.95;;
70132;SDS011;57495;49.922;7.966;2022-09-09T04:39:12;4.30;;;0.80;;
70132;SDS011;57495;49.922;7.966;2022-09-09T04:41:14;3.60;;;1.00;;
70132;SDS011;57495;49.922;7.966;2022-09-09T04:43:16;6.18;;;1.33;;
70132;SDS011;57495;49.922;7.966;2022-09-09T04:45:20;6.63;;;1.10;;
70132;SDS011;57495;49.922;7.966;2022-09-09T04:47:21;6.45;;;1.40;;
70132;SDS011;57495;49.922;7.966;2022-09-09T04:49:22;5.55;;;1.17;;
70132;SDS011;57495;49.922;7.966;2022-09-09T04:51:24;7.00;;;1.30;;
70132;SDS011;57495;49.922;7.966;2022-09-09T04:53:25;5.55;;;1.40;;
70132;SDS011;57495;49.922;7.966;2022-09-09T04:55:27;3.50;;;0.97;;
70132;SDS011;57495;49.922;7.966;2022-09-09T04:57:28;5.97;;;1.15;;
70132;SDS011;57495;49.922;7.966;2022-09-09T04:59:31;4.40;;;1.10;;
70132;SDS011;57495;49.922;7.966;2022-09-09T05:01:34;5.57;;;1.25;;
70132;SDS011;57495;49.922;7.966;2022-09-09T05:03:35;3.30;;;1.02;;
70132;SDS011;57495;49.922;7.966;2022-09-09T05:05:37;5.23;;;0.90;;
70132;SDS011;57495;49.922;7.966;2022-09-09T05:07:38;7.47;;;1.65;;
70132;SDS011;57495;49.922;7.966;2022-09-09T05:09:40;6.53;;;1.13;;
70132;SDS011;57495;49.922;7.966;2022-09-09T05:11:41;5.65;;;0.70;;
70132;SDS011;57495;49.922;7.966;2022-09-09T05:13:44;3.20;;;0.65;;
70132;SDS011;57495;49.922;7.966;2022-09-09T05:15:50;6.93;;;0.83;;
70132;SDS011;57495;49.922;7.966;2022-09-09T05:17:56;4.40;;;0.88;;
70132;SDS011;57495;49.922;7.966;2022-09-09T05:19:58;4.90;;;1.05;;
70132;SDS011;57495;49.922;7.966;2022-09-09T05:22:00;3.58;;;0.60;;
70132;SDS011;57495;49.922;7.966;2022-09-09T05:24:01;3.67;;;0.75;;
70132;SDS011;57495;49.922;7.966;2022-09-09T05:26:03;3.77;;;1.00;;
70132;SDS011;57495;49.922;7.966;2022-09-09T05:28:05;4.97;;;0.80;;
70132;SDS011;57495;49.922;7.966;2022-09-09T05:30:08;3.90;;;0.85;;
70132;SDS011;57495;49.922;7.966;2022-09-09T05:32:10;4.07;;;0.93;;
70132;SDS011;57495;49.922;7.966;2022-09-09T05:34:14;5.38;;;1.13;;
70132;SDS011;57495;49.922;7.966;2022-09-09T05:36:16;4.57;;;0.70;;
70132;SDS011;57495;49.922;7.966;2022-09-09T05:38:19;5.03;;;0.75;;
70132;SDS011;57495;49.922;7.966;2022-09-09T05:40:20;4.50;;;0.90;;
70132;SDS011;57495;49.922;7.966;2022-09-09T05:42:22;5.60;;;0.73;;
70132;SDS011;57495;49.922;7.966;2022-09-09T05:44:23;2.88;;;0.80;;
70132;SDS011;57495;49.922;7.966;2022-09-09T05:46:27;4.97;;;1.27;;
70132;SDS011;57495;49.922;7.966;2022-09-09T05:48:29;9.07;;;1.55;;
70132;SDS011;57495;49.922;7.966;2022-09-09T05:50:32;4.32;;;0.90;;
70132;SDS011;57495;49.922;7.966;2022-09-09T05:52:33;5.25;;;0.77;;
70132;SDS011;57495;49.922;7.966;2022-09-09T05:54:35;5.03;;;0.75;;
70132;SDS011;57495;49.922;7.966;2022-09-09T05:56:37;6.73;;;0.90;;
70132;SDS011;57495;49.922;7.966;2022-09-09T05:58:38;6.28;;;0.75;;
70132;SDS011;57495;49.922;7.966;2022-09-09T06:00:40;5.55;;;1.23;;
70132;SDS011;57495;49.922;7.966;2022-09-09T06:02:41;4.35;;;0.95;;
70132;SDS011;57495;49.922;7.966;2022-09-09T06:04:43;5.47;;;0.90;;
70132;SDS011;57495;49.922;7.966;2022-09-09T06:06:46;5.73;;;1.27;;
70132;SDS011;57495;49.922;7.966;2022-09-09T06:08:50;8.18;;;1.13;;
70132;SDS011;57495;49.922;7.966;2022-09-09T06:10:52;5.05;;;1.30;;
70132;SDS011;57495;49.922;7.966;2022-09-09T06:12:54;5.95;;;1.10;;
70132;SDS011;57495;49.922;7.966;2022-09-09T06:14:55;5.35;;;1.17;;
70132;SDS011;57495;49.922;7.966;2022-09-09T06:16:57;6.47;;;1.27;;
70132;SDS011;57495;49.922;7.966;2022-09-09T06:18:58;5.93;;;1.15;;
70132;SDS011;57495;49.922;7.966;2022-09-09T06:21:00;6.43;;;1.58;;
70132;SDS011;57495;49.922;7.966;2022-09-09T06:23:05;4.47;;;0.88;;
70132;SDS011;57495;49.922;7.966;2022-09-09T06:25:07;6.53;;;1.10;;
70132;SDS011;57495;49.922;7.966;2022-09-09T06:27:09;7.27;;;1.40;;
70132;SDS011;57495;49.922;7.966;2022-09-09T06:29:10;3.72;;;1.08;;
70132;SDS011;57495;49.922;7.966;2022-09-09T06:31:13;5.65;;;1.40;;
70132;SDS011;57495;49.922;7.966;2022-09-09T06:33:17;5.35;;;1.73;;
70132;SDS011;57495;49.922;7.966;2022-09-09T06:35:18;5.85;;;1.27;;
70132;SDS011;57495;49.922;7.966;2022-09-09T06:37:20;6.00;;;1.40;;
70132;SDS011;57495;49.922;7.966;2022-09-09T06:39:25;4.15;;;0.98;;
70132;SDS011;57495;49.922;7.966;2022-09-09T06:41:27;5.30;;;1.30;;
70132;SDS011;57495;49.922;7.966;2022-09-09T06:43:29;7.22;;;1.42;;
70132;SDS011;57495;49.922;7.966;2022-09-09T06:45:31;5.10;;;1.02;;
70132;SDS011;57495;49.922;7.966;2022-09-09T06:47:32;4.60;;;1.07;;
70132;SDS011;57495;49.922;7.966;2022-09-09T06:49:34;8.27;;;1.33;;
70132;SDS011;57495;49.922;7.966;2022-09-09T06:51:36;3.70;;;1.10;;
70132;SDS011;57495;49.922;7.966;2022-09-09T06:53:43;6.93;;;1.40;;
70132;SDS011;57495;49.922;7.966;2022-09-09T06:55:47;3.92;;;1.25;;
70132;SDS011;57495;49.922;7.966;2022-09-09T06:57:48;8.33;;;1.30;;
70132;SDS011;57495;49.922;7.966;2022-09-09T06:59:51;6.47;;;1.25;;
70132;SDS011;57495;49.922;7.966;2022-09-09T07:01:52;5.78;;;1.15;;
70132;SDS011;57495;49.922;7.966;2022-09-09T07:03:55;9.43;;;1.42;;
70132;SDS011;57495;49.922;7.966;2022-09-09T07:05:58;4.53;;;1.45;;
70132;SDS011;57495;49.922;7.966;2022-09-09T07:08:01;5.23;;;1.77;;
70132;SDS011;57495;49.922;7.966;2022-09-09T07:10:03;5.45;;;1.98;;
70132;SDS011;57495;49.922;7.966;2022-09-09T07:12:06;7.72;;;2.38;;
70132;SDS011;57495;49.922;7.966;2022-09-09T07:14:08;5.65;;;2.17;;
70132;SDS011;57495;49.922;7.966;2022-09-09T07:16:13;7.50;;;2.55;;
70132;SDS011;57495;49.922;7.966;2022-09-09T07:18:17;8.43;;;2.57;;
70132;SDS011;57495;49.922;7.966;2022-09-09T07:20:18;7.18;;;2.40;;
70132;SDS011;57495;49.922;7.966;2022-09-09T07:22:20;8.80;;;2.60;;
70132;SDS011;57495;49.922;7.966;2022-09-09T07:24:21;6.32;;;2.75;;
70132;SDS011;57495;49.922;7.966;2022-09-09T07:26:24;7.50;;;2.85;;
70132;SDS011;57495;49.922;7.966;2022-09-09T07:28:28;8.97;;;3.40;;
70132;SDS011;57495;49.922;7.966;2022-09-09T07:30:31;6.70;;;3.22;;
70132;SDS011;57495;49.922;7.966;2022-09-09T07:32:32;7.72;;;3.60;;
70132;SDS011;57495;49.922;7.966;2022-09-09T07:34:33;4.93;;;3.10;;
70132;SDS011;57495;49.922;7.966;2022-09-09T07:36:35;7.38;;;3.88;;
70132;SDS011;57495;49.922;7.966;2022-09-09T07:38:39;9.53;;;3.63;;
70132;SDS011;57495;49.922;7.966;2022-09-09T07:40:40;7.05;;;3.53;;
70132;SDS011;57495;49.922;7.966;2022-09-09T07:42:42;7.22;;;3.65;;
70132;SDS011;57495;49.922;7.966;2022-09-09T07:44:44;6.28;;;3.83;;
70132;SDS011;57495;49.922;7.966;2022-09-09T07:46:46;8.82;;;3.50;;
70132;SDS011;57495;49.922;7.966;2022-09-09T07:48:48;10.47;;;3.50;;
70132;SDS011;57495;49.922;7.966;2022-09-09T07:50:51;9.05;;;3.20;;
70132;SDS011;57495;49.922;7.966;2022-09-09T07:52:53;8.35;;;3.00;;
70132;SDS011;57495;49.922;7.966;2022-09-09T07:54:54;10.73;;;3.28;;
70132;SDS011;57495;49.922;7.966;2022-09-09T07:56:57;7.32;;;2.70;;
70132;SDS011;57495;49.922;7.966;2022-09-09T07:58:58;7.57;;;2.73;;
70132;SDS011;57495;49.922;7.966;2022-09-09T08:01:06;9.65;;;2.97;;
70132;SDS011;57495;49.922;7.966;2022-09-09T08:03:09;7.55;;;3.08;;
70132;SDS011;57495;49.922;7.966;2022-09-09T08:05:10;7.82;;;2.97;;
70132;SDS011;57495;49.922;7.966;2022-09-09T08:07:12;6.95;;;2.60;;
70132;SDS011;57495;49.922;7.966;2022-09-09T08:09:14;11.03;;;2.57;;
70132;SDS011;57495;49.922;7.966;2022-09-09T08:11:16;6.63;;;2.85;;
70132;SDS011;57495;49.922;7.966;2022-09-09T08:13:17;8.05;;;2.33;;
70132;SDS011;57495;49.922;7.966;2022-09-09T08:15:19;7.60;;;2.50;;
70132;SDS011;57495;49.922;7.966;2022-09-09T08:17:22;7.40;;;2.55;;
70132;SDS011;57495;49.922;7.966;2022-09-09T08:19:26;11.47;;;2.90;;
70132;SDS011;57495;49.922;7.966;2022-09-09T08:21:30;9.68;;;2.55;;
70132;SDS011;57495;49.922;7.966;2022-09-09T08:23:33;9.45;;;2.10;;
70132;SDS011;57495;49.922;7.966;2022-09-09T08:25:35;8.45;;;2.03;;
70132;SDS011;57495;49.922;7.966;2022-09-09T08:27:36;5.50;;;2.15;;
70132;SDS011;57495;49.922;7.966;2022-09-09T08:29:38;6.80;;;1.80;;
70132;SDS011;57495;49.922;7.966;2022-09-09T08:31:40;6.03;;;1.77;;
70132;SDS011;57495;49.922;7.966;2022-09-09T08:33:44;4.70;;;1.70;;
70132;SDS011;57495;49.922;7.966;2022-09-09T08:35:49;6.32;;;2.00;;
70132;SDS011;57495;49.922;7.966;2022-09-09T08:37:53;5.03;;;1.35;;
70132;SDS011;57495;49.922;7.966;2022-09-09T08:39:55;6.50;;;1.80;;
70132;SDS011;57495;49.922;7.966;2022-09-09T08:42:03;7.60;;;2.25;;
70132;SDS011;57495;49.922;7.966;2022-09-09T08:44:21;7.07;;;2.13;;
70132;SDS011;57495;49.922;7.966;2022-09-09T08:46:28;8.57;;;2.35;;
70132;SDS011;57495;49.922;7.966;2022-09-09T08:48:40;7.45;;;2.22;;
70132;SDS011;57495;49.922;7.966;2022-09-09T08:50:53;6.87;;;2.67;;
70132;SDS011;57495;49.922;7.966;2022-09-09T08:53:02;6.57;;;2.00;;
70132;SDS011;57495;49.922;7.966;2022-09-09T08:55:12;6.75;;;1.95;;
70132;SDS011;57495;49.922;7.966;2022-09-09T08:57:24;8.25;;;1.83;;
70132;SDS011;57495;49.922;7.966;2022-09-09T08:59:28;5.93;;;1.92;;
70132;SDS011;57495;49.922;7.966;2022-09-09T09:04:02;7.90;;;1.95;;
70132;SDS011;57495;49.922;7.966;2022-09-09T09:06:13;8.68;;;1.40;;
70132;SDS011;57495;49.922;7.966;2022-09-09T09:08:28;6.28;;;2.13;;
70132;SDS011;57495;49.922;7.966;2022-09-09T09:10:37;6.68;;;1.60;;
70132;SDS011;57495;49.922;7.966;2022-09-09T09:12:46;4.63;;;1.47;;
70132;SDS011;57495;49.922;7.966;2022-09-09T09:14:49;8.23;;;1.77;;
70132;SDS011;57495;49.922;7.966;2022-09-09T09:16:52;6.22;;;1.48;;
70132;SDS011;57495;49.922;7.966;2022-09-09T09:18:57;4.43;;;1.33;;
70132;SDS011;57495;49.922;7.966;2022-09-09T09:21:03;5.60;;;1.42;;
70132;SDS011;57495;49.922;7.966;2022-09-09T09:23:12;7.37;;;1.60;;
70132;SDS011;57495;49.922;7.966;2022-09-09T09:25:21;5.43;;;1.42;;
70132;SDS011;57495;49.922;7.966;2022-09-09T09:27:30;11.07;;;2.22;;
70132;SDS011;57495;49.922;7.966;2022-09-09T09:29:33;6.00;;;1.40;;
70132;SDS011;57495;49.922;7.966;2022-09-09T09:31:35;6.55;;;1.40;;
70132;SDS011;57495;49.922;7.966;2022-09-09T09:33:38;6.10;;;1.50;;
70132;SDS011;57495;49.922;7.966;2022-09-09T09:35:48;6.32;;;1.55;;
70132;SDS011;57495;49.922;7.966;2022-09-09T09:37:51;12.95;;;6.43;;
70132;SDS011;57495;49.922;7.966;2022-09-09T09:39:53;6.05;;;1.50;;
70132;SDS011;57495;49.922;7.966;2022-09-09T09:41:55;5.95;;;1.60;;
70132;SDS011;57495;49.922;7.966;2022-09-09T09:43:57;5.90;;;1.20;;
70132;SDS011;57495;49.922;7.966;2022-09-09T09:45:59;7.40;;;1.58;;
70132;SDS011;57495;49.922;7.966;2022-09-09T09:48:02;6.75;;;1.60;;
70132;SDS011;57495;49.922;7.966;2022-09-09T09:50:15;4.45;;;1.23;;
70132;SDS011;57495;49.922;7.966;2022-09-09T09:52:21;5.60;;;1.40;;
70132;SDS011;57495;49.922;7.966;2022-09-09T09:54:27;4.77;;;1.27;;
70132;SDS011;57495;49.922;7.966;2022-09-09T09:56:30;5.32;;;1.10;;
70132;SDS011;57495;49.922;7.966;2022-09-09T09:58:33;5.43;;;1.00;;
70132;SDS011;57495;49.922;7.966;2022-09-09T10:00:49;6.07;;;0.82;;
70132;SDS011;57495;49.922;7.966;2022-09-09T10:02:53;4.93;;;0.80;;
70132;SDS011;57495;49.922;7.966;2022-09-09T10:05:01;4.20;;;0.80;;
70132;SDS011;57495;49.922;7.966;2022-09-09T10:07:09;3.55;;;1.10;;
70132;SDS011;57495;49.922;7.966;2022-09-09T10:09:20;3.75;;;0.55;;
70132;SDS011;57495;49.922;7.966;2022-09-09T10:11:30;5.07;;;1.13;;
70132;SDS011;57495;49.922;7.966;2022-09-09T10:13:46;6.65;;;1.15;;
70132;SDS011;57495;49.922;7.966;2022-09-09T10:15:59;4.97;;;1.30;;
70132;SDS011;57495;49.922;7.966;2022-09-09T10:18:18;4.20;;;0.80;;
70132;SDS011;57495;49.922;7.966;2022-09-09T10:20:31;4.22;;;0.70;;
70132;SDS011;57495;49.922;7.966;2022-09-09T10:22:38;5.20;;;0.70;;
70132;SDS011;57495;49.922;7.966;2022-09-09T10:24:49;8.55;;;1.10;;
70132;SDS011;57495;49.922;7.966;2022-09-09T10:27:10;6.57;;;1.00;;
70132;SDS011;57495;49.922;7.966;2022-09-09T10:31:47;5.65;;;1.10;;
70132;SDS011;57495;49.922;7.966;2022-09-09T10:33:57;6.88;;;1.10;;
70132;SDS011;57495;49.922;7.966;2022-09-09T10:36:12;4.93;;;0.75;;
70132;SDS011;57495;49.922;7.966;2022-09-09T10:38:18;4.53;;;0.60;;
70132;SDS011;57495;49.922;7.966;2022-09-09T10:40:28;4.43;;;0.80;;
70132;SDS011;57495;49.922;7.966;2022-09-09T10:42:35;4.38;;;0.90;;
70132;SDS011;57495;49.922;7.966;2022-09-09T10:44:39;5.68;;;1.08;;
70132;SDS011;57495;49.922;7.966;2022-09-09T10:46:57;4.00;;;0.70;;
70132;SDS011;57495;49.922;7.966;2022-09-09T10:49:16;6.20;;;0.67;;
70132;SDS011;57495;49.922;7.966;2022-09-09T10:51:28;4.22;;;0.40;;
70132;SDS011;57495;49.922;7.966;2022-09-09T10:53:35;5.25;;;0.82;;
70132;SDS011;57495;49.922;7.966;2022-09-09T10:55:43;5.03;;;0.55;;
70132;SDS011;57495;49.922;7.966;2022-09-09T10:57:51;2.92;;;0.65;;
70132;SDS011;57495;49.922;7.966;2022-09-09T10:59:55;3.60;;;0.80;;
70132;SDS011;57495;49.922;7.966;2022-09-09T11:02:01;4.20;;;0.98;;
70132;SDS011;57495;49.922;7.966;2022-09-09T11:04:13;5.10;;;1.05;;
70132;SDS011;57495;49.922;7.966;2022-09-09T11:06:19;4.57;;;0.68;;
70132;SDS011;57495;49.922;7.966;2022-09-09T11:08:24;5.28;;;1.08;;
70132;SDS011;57495;49.922;7.966;2022-09-09T11:10:29;5.83;;;0.80;;
70132;SDS011;57495;49.922;7.966;2022-09-09T11:12:39;3.45;;;0.73;;
70132;SDS011;57495;49.922;7.966;2022-09-09T11:14:47;6.15;;;1.02;;
70132;SDS011;57495;49.922;7.966;2022-09-09T11:16:56;2.90;;;0.98;;
70132;SDS011;57495;49.922;7.966;2022-09-09T11:19:02;3.58;;;0.98;;
70132;SDS011;57495;49.922;7.966;2022-09-09T11:21:15;3.37;;;0.87;;
70132;SDS011;57495;49.922;7.966;2022-09-09T11:23:23;5.95;;;0.90;;
70132;SDS011;57495;49.922;7.966;2022-09-09T11:25:29;4.57;;;0.90;;
70132;SDS011;57495;49.922;7.966;2022-09-09T11:27:37;7.28;;;0.60;;
70132;SDS011;57495;49.922;7.966;2022-09-09T11:30:04;4.82;;;1.50;;
70132;SDS011;57495;49.922;7.966;2022-09-09T11:32:21;5.77;;;0.93;;
70132;SDS011;57495;49.922;7.966;2022-09-09T11:34:44;4.70;;;0.88;;
70132;SDS011;57495;49.922;7.966;2022-09-09T11:37:02;4.22;;;0.75;;
70132;SDS011;57495;49.922;7.966;2022-09-09T11:39:31;4.60;;;0.52;;
70132;SDS011;57495;49.922;7.966;2022-09-09T11:41:39;5.60;;;1.17;;
70132;SDS011;57495;49.922;7.966;2022-09-09T11:43:41;8.23;;;0.70;;
70132;SDS011;57495;49.922;7.966;2022-09-09T11:45:51;6.07;;;0.73;;
70132;SDS011;57495;49.922;7.966;2022-09-09T11:47:57;6.63;;;0.90;;
70132;SDS011;57495;49.922;7.966;2022-09-09T11:50:07;5.47;;;0.70;;
70132;SDS011;57495;49.922;7.966;2022-09-09T11:52:35;5.85;;;0.50;;
70132;SDS011;57495;49.922;7.966;2022-09-09T11:54:45;4.27;;;0.40;;
70132;SDS011;57495;49.922;7.966;2022-09-09T11:56:49;7.25;;;1.00;;
70132;SDS011;57495;49.922;7.966;2022-09-09T11:58:53;4.43;;;0.55;;
70132;SDS011;57495;49.922;7.966;2022-09-09T12:00:58;4.03;;;0.90;;
70132;SDS011;57495;49.922;7.966;2022-09-09T12:03:00;6.22;;;0.90;;
70132;SDS011;57495;49.922;7.966;2022-09-09T12:05:02;7.67;;;1.00;;
70132;SDS011;57495;49.922;7.966;2022-09-09T12:07:21;3.90;;;0.60;;
70132;SDS011;57495;49.922;7.966;2022-09-09T12:09:31;4.10;;;0.55;;
70132;SDS011;57495;49.922;7.966;2022-09-09T12:11:39;3.63;;;0.38;;
70132;SDS011;57495;49.922;7.966;2022-09-09T12:13:41;5.38;;;0.40;;
70132;SDS011;57495;49.922;7.966;2022-09-09T12:15:54;4.13;;;0.70;;
70132;SDS011;57495;49.922;7.966;2022-09-09T12:17:58;6.53;;;0.77;;
70132;SDS011;57495;49.922;7.966;2022-09-09T12:20:09;4.15;;;0.60;;
70132;SDS011;57495;49.922;7.966;2022-09-09T12:22:16;3.80;;;0.60;;
70132;SDS011;57495;49.922;7.966;2022-09-09T12:24:27;4.38;;;0.98;;
70132;SDS011;57495;49.922;7.966;2022-09-09T12:26:37;4.80;;;0.50;;
70132;SDS011;57495;49.922;7.966;2022-09-09T12:28:45;3.08;;;0.30;;
70132;SDS011;57495;49.922;7.966;2022-09-09T12:30:55;1.92;;;0.20;;
70132;SDS011;57495;49.922;7.966;2022-09-09T12:33:08;2.85;;;0.40;;
70132;SDS011;57495;49.922;7.966;2022-09-09T12:35:13;3.70;;;0.40;;
70132;SDS011;57495;49.922;7.966;2022-09-09T12:37:24;5.03;;;0.50;;
70132;SDS011;57495;49.922;7.966;2022-09-09T12:39:31;3.45;;;0.45;;
70132;SDS011;57495;49.922;7.966;2022-09-09T12:41:36;8.45;;;0.40;;